sensor_id;sensor_type;location;lat;lon;timestamp;P1;durP1;ratioP1;P2;durP2;ratioP2
24008;SDS011;12217;50.792;4.372;2022-08-19T00:00:12;10.20;;;9.23;;
24008;SDS011;12217;50.792;4.372;2022-08-19T00:02:39;10.00;;;9.10;;
24008;SDS011;12217;50.792;4.372;2022-08-19T00:05:05;11.38;;;10.02;;
24008;SDS011;12217;50.792;4.372;2022-08-19T00:07:32;10.65;;;9.65;;
24008;SDS011;12217;50.792;4.372;2022-08-19T00:09:57;11.20;;;9.73;;
24008;SDS011;12217;50.792;4.372;2022-08-19T00:12:23;11.38;;;10.38;;
24008;SDS011;12217;50.792;4.372;2022-08-19T00:14:49;11.32;;;10.32;;
24008;SDS011;12217;50.792;4.372;2022-08-19T00:17:14;16.77;;;15.00;;
24008;SDS011;12217;50.792;4.372;2022-08-19T00:19:40;16.63;;;15.02;;
24008;SDS011;12217;50.792;4.372;2022-08-19T00:22:06;17.92;;;16.23;;
24008;SDS011;12217;50.792;4.372;2022-08-19T00:24:33;16.15;;;14.48;;
24008;SDS011;12217;50.792;4.372;2022-08-19T00:27:00;15.02;;;13.65;;
24008;SDS011;12217;50.792;4.372;2022-08-19T00:29:27;19.52;;;17.52;;
24008;SDS011;12217;50.792;4.372;2022-08-19T00:31:53;21.35;;;19.10;;
24008;SDS011;12217;50.792;4.372;2022-08-19T00:34:21;24.65;;;22.15;;
24008;SDS011;12217;50.792;4.372;2022-08-19T00:36:47;23.67;;;21.27;;
24008;SDS011;12217;50.792;4.372;2022-08-19T00:39:14;23.98;;;21.48;;
24008;SDS011;12217;50.792;4.372;2022-08-19T00:41:41;32.58;;;24.83;;
24008;SDS011;12217;50.792;4.372;2022-08-19T00:44:12;27.52;;;23.33;;
24008;SDS011;12217;50.792;4.372;2022-08-19T00:46:43;30.20;;;25.98;;
24008;SDS011;12217;50.792;4.372;2022-08-19T00:49:11;30.08;;;26.05;;
24008;SDS011;12217;50.792;4.372;2022-08-19T00:51:40;28.40;;;24.67;;
24008;SDS011;12217;50.792;4.372;2022-08-19T00:54:08;30.23;;;26.60;;
24008;SDS011;12217;50.792;4.372;2022-08-19T00:56:34;29.48;;;25.80;;
24008;SDS011;12217;50.792;4.372;2022-08-19T00:59:01;29.88;;;26.75;;
24008;SDS011;12217;50.792;4.372;2022-08-19T01:01:33;29.42;;;26.02;;
24008;SDS011;12217;50.792;4.372;2022-08-19T01:03:59;29.55;;;26.35;;
24008;SDS011;12217;50.792;4.372;2022-08-19T01:06:25;30.67;;;27.38;;
24008;SDS011;12217;50.792;4.372;2022-08-19T01:08:51;28.98;;;24.70;;
24008;SDS011;12217;50.792;4.372;2022-08-19T01:11:17;30.48;;;26.63;;
24008;SDS011;12217;50.792;4.372;2022-08-19T01:13:43;28.98;;;25.88;;
24008;SDS011;12217;50.792;4.372;2022-08-19T01:16:10;27.48;;;24.67;;
24008;SDS011;12217;50.792;4.372;2022-08-19T01:18:36;28.60;;;24.85;;
24008;SDS011;12217;50.792;4.372;2022-08-19T01:21:08;27.55;;;24.33;;
24008;SDS011;12217;50.792;4.372;2022-08-19T01:23:40;28.95;;;25.50;;
24008;SDS011;12217;50.792;4.372;2022-08-19T01:26:11;28.23;;;25.35;;
24008;SDS011;12217;50.792;4.372;2022-08-19T01:28:40;28.05;;;25.05;;
24008;SDS011;12217;50.792;4.372;2022-08-19T01:31:12;31.42;;;27.20;;
24008;SDS011;12217;50.792;4.372;2022-08-19T01:33:40;29.15;;;25.80;;
24008;SDS011;12217;50.792;4.372;2022-08-19T01:36:08;31.25;;;27.95;;
24008;SDS011;12217;50.792;4.372;2022-08-19T01:38:38;36.45;;;30.95;;
24008;SDS011;12217;50.792;4.372;2022-08-19T01:41:05;34.15;;;28.85;;
24008;SDS011;12217;50.792;4.372;2022-08-19T01:43:31;34.72;;;30.48;;
24008;SDS011;12217;50.792;4.372;2022-08-19T01:45:57;34.90;;;31.23;;
24008;SDS011;12217;50.792;4.372;2022-08-19T01:48:23;39.42;;;32.95;;
24008;SDS011;12217;50.792;4.372;2022-08-19T01:50:49;36.15;;;32.35;;
24008;SDS011;12217;50.792;4.372;2022-08-19T01:53:14;38.63;;;33.53;;
24008;SDS011;12217;50.792;4.372;2022-08-19T01:55:41;36.97;;;33.00;;
24008;SDS011;12217;50.792;4.372;2022-08-19T01:58:15;37.05;;;32.47;;
24008;SDS011;12217;50.792;4.372;2022-08-19T02:00:45;39.15;;;33.78;;
24008;SDS011;12217;50.792;4.372;2022-08-19T02:03:11;38.60;;;34.40;;
24008;SDS011;12217;50.792;4.372;2022-08-19T02:05:36;36.40;;;32.50;;
24008;SDS011;12217;50.792;4.372;2022-08-19T02:08:03;36.78;;;30.85;;
24008;SDS011;12217;50.792;4.372;2022-08-19T02:10:29;34.78;;;30.48;;
24008;SDS011;12217;50.792;4.372;2022-08-19T02:12:55;34.95;;;30.92;;
24008;SDS011;12217;50.792;4.372;2022-08-19T02:15:20;34.97;;;30.55;;
24008;SDS011;12217;50.792;4.372;2022-08-19T02:17:47;32.90;;;29.13;;
24008;SDS011;12217;50.792;4.372;2022-08-19T02:20:13;35.03;;;31.33;;
24008;SDS011;12217;50.792;4.372;2022-08-19T02:22:40;34.72;;;30.40;;
24008;SDS011;12217;50.792;4.372;2022-08-19T02:25:08;39.80;;;32.83;;
24008;SDS011;12217;50.792;4.372;2022-08-19T02:27:35;38.97;;;32.38;;
24008;SDS011;12217;50.792;4.372;2022-08-19T02:30:01;35.75;;;31.52;;
24008;SDS011;12217;50.792;4.372;2022-08-19T02:32:30;36.60;;;31.00;;
24008;SDS011;12217;50.792;4.372;2022-08-19T02:34:55;34.05;;;30.35;;
24008;SDS011;12217;50.792;4.372;2022-08-19T02:37:21;36.13;;;30.55;;
24008;SDS011;12217;50.792;4.372;2022-08-19T02:40:06;36.65;;;30.38;;
24008;SDS011;12217;50.792;4.372;2022-08-19T02:42:32;34.05;;;29.65;;
24008;SDS011;12217;50.792;4.372;2022-08-19T02:44:57;36.33;;;30.83;;
24008;SDS011;12217;50.792;4.372;2022-08-19T02:47:23;36.45;;;30.25;;
24008;SDS011;12217;50.792;4.372;2022-08-19T02:49:49;37.63;;;30.58;;
24008;SDS011;12217;50.792;4.372;2022-08-19T02:52:15;35.97;;;29.17;;
24008;SDS011;12217;50.792;4.372;2022-08-19T02:54:41;35.67;;;29.63;;
24008;SDS011;12217;50.792;4.372;2022-08-19T02:57:07;34.33;;;29.25;;
24008;SDS011;12217;50.792;4.372;2022-08-19T02:59:33;33.40;;;28.25;;
24008;SDS011;12217;50.792;4.372;2022-08-19T03:01:58;33.70;;;28.15;;
24008;SDS011;12217;50.792;4.372;2022-08-19T03:04:24;32.92;;;27.00;;
24008;SDS011;12217;50.792;4.372;2022-08-19T03:06:50;32.55;;;25.77;;
24008;SDS011;12217;50.792;4.372;2022-08-19T03:09:17;29.55;;;24.45;;
24008;SDS011;12217;50.792;4.372;2022-08-19T03:11:44;30.63;;;26.05;;
24008;SDS011;12217;50.792;4.372;2022-08-19T03:14:10;28.52;;;25.00;;
24008;SDS011;12217;50.792;4.372;2022-08-19T03:16:43;28.83;;;24.50;;
24008;SDS011;12217;50.792;4.372;2022-08-19T03:19:12;29.42;;;25.17;;
24008;SDS011;12217;50.792;4.372;2022-08-19T03:21:38;29.67;;;24.08;;
24008;SDS011;12217;50.792;4.372;2022-08-19T03:24:06;30.60;;;25.13;;
24008;SDS011;12217;50.792;4.372;2022-08-19T03:26:33;31.65;;;23.55;;
24008;SDS011;12217;50.792;4.372;2022-08-19T03:29:02;29.95;;;25.05;;
24008;SDS011;12217;50.792;4.372;2022-08-19T03:31:29;28.23;;;23.90;;
24008;SDS011;12217;50.792;4.372;2022-08-19T03:33:56;29.85;;;24.73;;
24008;SDS011;12217;50.792;4.372;2022-08-19T03:36:23;29.50;;;24.60;;
24008;SDS011;12217;50.792;4.372;2022-08-19T03:38:51;33.55;;;26.30;;
24008;SDS011;12217;50.792;4.372;2022-08-19T03:41:21;30.33;;;23.95;;
24008;SDS011;12217;50.792;4.372;2022-08-19T03:43:52;27.58;;;24.50;;
24008;SDS011;12217;50.792;4.372;2022-08-19T03:46:20;29.77;;;24.50;;
24008;SDS011;12217;50.792;4.372;2022-08-19T03:48:50;32.63;;;25.95;;
24008;SDS011;12217;50.792;4.372;2022-08-19T03:51:22;30.80;;;25.52;;
24008;SDS011;12217;50.792;4.372;2022-08-19T03:53:53;28.77;;;25.25;;
24008;SDS011;12217;50.792;4.372;2022-08-19T03:56:20;32.83;;;26.40;;
24008;SDS011;12217;50.792;4.372;2022-08-19T03:58:47;30.98;;;25.55;;
24008;SDS011;12217;50.792;4.372;2022-08-19T04:01:14;32.40;;;25.48;;
24008;SDS011;12217;50.792;4.372;2022-08-19T04:03:43;37.22;;;26.85;;
24008;SDS011;12217;50.792;4.372;2022-08-19T04:06:12;34.60;;;26.92;;
24008;SDS011;12217;50.792;4.372;2022-08-19T04:08:42;37.63;;;27.10;;
24008;SDS011;12217;50.792;4.372;2022-08-19T04:11:11;36.35;;;27.50;;
24008;SDS011;12217;50.792;4.372;2022-08-19T04:13:40;39.07;;;26.33;;
24008;SDS011;12217;50.792;4.372;2022-08-19T04:16:07;37.08;;;27.27;;
24008;SDS011;12217;50.792;4.372;2022-08-19T04:18:35;39.05;;;27.63;;
24008;SDS011;12217;50.792;4.372;2022-08-19T04:21:03;35.63;;;26.65;;
24008;SDS011;12217;50.792;4.372;2022-08-19T04:23:29;36.40;;;24.80;;
24008;SDS011;12217;50.792;4.372;2022-08-19T04:25:56;43.05;;;27.45;;
24008;SDS011;12217;50.792;4.372;2022-08-19T04:28:22;32.63;;;25.88;;
24008;SDS011;12217;50.792;4.372;2022-08-19T04:30:52;31.55;;;24.73;;
24008;SDS011;12217;50.792;4.372;2022-08-19T04:33:22;37.72;;;25.63;;
24008;SDS011;12217;50.792;4.372;2022-08-19T04:35:49;35.47;;;24.88;;
24008;SDS011;12217;50.792;4.372;2022-08-19T04:38:17;35.58;;;24.45;;
24008;SDS011;12217;50.792;4.372;2022-08-19T04:40:46;34.20;;;25.35;;
24008;SDS011;12217;50.792;4.372;2022-08-19T04:43:32;34.45;;;25.90;;
24008;SDS011;12217;50.792;4.372;2022-08-19T04:46:06;33.97;;;26.30;;
24008;SDS011;12217;50.792;4.372;2022-08-19T04:48:34;35.47;;;26.38;;
24008;SDS011;12217;50.792;4.372;2022-08-19T04:51:00;34.35;;;24.48;;
24008;SDS011;12217;50.792;4.372;2022-08-19T04:53:27;35.38;;;24.92;;
24008;SDS011;12217;50.792;4.372;2022-08-19T04:55:54;34.53;;;25.42;;
24008;SDS011;12217;50.792;4.372;2022-08-19T04:58:22;34.13;;;26.27;;
24008;SDS011;12217;50.792;4.372;2022-08-19T05:00:48;38.08;;;26.45;;
24008;SDS011;12217;50.792;4.372;2022-08-19T05:03:14;36.17;;;27.45;;
24008;SDS011;12217;50.792;4.372;2022-08-19T05:05:43;36.35;;;27.13;;
24008;SDS011;12217;50.792;4.372;2022-08-19T05:08:13;37.33;;;26.85;;
24008;SDS011;12217;50.792;4.372;2022-08-19T05:10:44;34.80;;;26.42;;
24008;SDS011;12217;50.792;4.372;2022-08-19T05:13:12;33.58;;;25.65;;
24008;SDS011;12217;50.792;4.372;2022-08-19T05:15:37;35.67;;;26.55;;
24008;SDS011;12217;50.792;4.372;2022-08-19T05:18:03;33.58;;;26.08;;
24008;SDS011;12217;50.792;4.372;2022-08-19T05:20:47;36.35;;;26.27;;
24008;SDS011;12217;50.792;4.372;2022-08-19T05:23:31;33.47;;;25.52;;
24008;SDS011;12217;50.792;4.372;2022-08-19T05:25:57;33.90;;;25.83;;
24008;SDS011;12217;50.792;4.372;2022-08-19T05:28:22;34.25;;;25.17;;
24008;SDS011;12217;50.792;4.372;2022-08-19T05:30:48;34.97;;;24.77;;
24008;SDS011;12217;50.792;4.372;2022-08-19T05:33:15;35.38;;;26.23;;
24008;SDS011;12217;50.792;4.372;2022-08-19T05:35:42;35.03;;;25.35;;
24008;SDS011;12217;50.792;4.372;2022-08-19T05:38:09;34.85;;;26.05;;
24008;SDS011;12217;50.792;4.372;2022-08-19T05:40:36;31.92;;;26.38;;
24008;SDS011;12217;50.792;4.372;2022-08-19T05:43:04;34.50;;;26.10;;
24008;SDS011;12217;50.792;4.372;2022-08-19T05:45:31;30.27;;;23.85;;
24008;SDS011;12217;50.792;4.372;2022-08-19T05:47:57;35.45;;;23.85;;
24008;SDS011;12217;50.792;4.372;2022-08-19T05:50:24;30.23;;;22.80;;
24008;SDS011;12217;50.792;4.372;2022-08-19T05:52:53;29.70;;;23.20;;
24008;SDS011;12217;50.792;4.372;2022-08-19T05:55:18;27.73;;;20.98;;
24008;SDS011;12217;50.792;4.372;2022-08-19T05:57:45;29.95;;;21.40;;
24008;SDS011;12217;50.792;4.372;2022-08-19T06:00:11;31.10;;;21.30;;
24008;SDS011;12217;50.792;4.372;2022-08-19T06:02:38;22.15;;;19.00;;
24008;SDS011;12217;50.792;4.372;2022-08-19T06:05:05;25.77;;;19.42;;
24008;SDS011;12217;50.792;4.372;2022-08-19T06:07:33;23.58;;;17.95;;
24008;SDS011;12217;50.792;4.372;2022-08-19T06:10:00;25.20;;;17.27;;
24008;SDS011;12217;50.792;4.372;2022-08-19T06:12:27;21.15;;;16.30;;
24008;SDS011;12217;50.792;4.372;2022-08-19T06:14:58;24.83;;;16.48;;
24008;SDS011;12217;50.792;4.372;2022-08-19T06:17:24;22.23;;;15.25;;
24008;SDS011;12217;50.792;4.372;2022-08-19T06:19:51;19.95;;;15.07;;
24008;SDS011;12217;50.792;4.372;2022-08-19T06:22:17;18.52;;;14.20;;
24008;SDS011;12217;50.792;4.372;2022-08-19T06:24:42;16.38;;;13.18;;
24008;SDS011;12217;50.792;4.372;2022-08-19T06:27:08;18.95;;;13.43;;
24008;SDS011;12217;50.792;4.372;2022-08-19T06:29:34;16.13;;;12.85;;
24008;SDS011;12217;50.792;4.372;2022-08-19T06:32:01;18.30;;;11.32;;
24008;SDS011;12217;50.792;4.372;2022-08-19T06:34:29;16.45;;;11.68;;
24008;SDS011;12217;50.792;4.372;2022-08-19T06:36:57;17.08;;;11.63;;
24008;SDS011;12217;50.792;4.372;2022-08-19T06:39:29;16.35;;;11.88;;
24008;SDS011;12217;50.792;4.372;2022-08-19T06:41:58;13.40;;;10.60;;
24008;SDS011;12217;50.792;4.372;2022-08-19T06:44:27;15.38;;;11.10;;
24008;SDS011;12217;50.792;4.372;2022-08-19T06:46:54;15.43;;;11.02;;
24008;SDS011;12217;50.792;4.372;2022-08-19T06:49:21;12.07;;;10.23;;
24008;SDS011;12217;50.792;4.372;2022-08-19T06:51:47;14.00;;;11.23;;
24008;SDS011;12217;50.792;4.372;2022-08-19T06:54:15;15.93;;;10.48;;
24008;SDS011;12217;50.792;4.372;2022-08-19T06:56:42;17.20;;;10.70;;
24008;SDS011;12217;50.792;4.372;2022-08-19T06:59:12;16.42;;;10.43;;
24008;SDS011;12217;50.792;4.372;2022-08-19T07:01:41;16.48;;;10.68;;
24008;SDS011;12217;50.792;4.372;2022-08-19T07:04:16;15.65;;;10.77;;
24008;SDS011;12217;50.792;4.372;2022-08-19T07:06:44;19.00;;;10.48;;
24008;SDS011;12217;50.792;4.372;2022-08-19T07:09:12;16.00;;;9.00;;
24008;SDS011;12217;50.792;4.372;2022-08-19T07:11:43;17.08;;;10.80;;
24008;SDS011;12217;50.792;4.372;2022-08-19T07:14:14;14.95;;;10.25;;
24008;SDS011;12217;50.792;4.372;2022-08-19T07:16:43;18.50;;;10.40;;
24008;SDS011;12217;50.792;4.372;2022-08-19T07:19:10;17.42;;;11.52;;
24008;SDS011;12217;50.792;4.372;2022-08-19T07:21:37;13.88;;;11.52;;
24008;SDS011;12217;50.792;4.372;2022-08-19T07:24:02;17.08;;;10.43;;
24008;SDS011;12217;50.792;4.372;2022-08-19T07:26:30;17.23;;;10.85;;
24008;SDS011;12217;50.792;4.372;2022-08-19T07:28:58;16.60;;;11.68;;
24008;SDS011;12217;50.792;4.372;2022-08-19T07:31:26;18.60;;;11.05;;
24008;SDS011;12217;50.792;4.372;2022-08-19T07:33:53;12.95;;;9.35;;
24008;SDS011;12217;50.792;4.372;2022-08-19T07:36:26;16.00;;;9.45;;
24008;SDS011;12217;50.792;4.372;2022-08-19T07:38:58;14.10;;;9.77;;
24008;SDS011;12217;50.792;4.372;2022-08-19T07:41:27;12.80;;;9.65;;
24008;SDS011;12217;50.792;4.372;2022-08-19T07:43:55;15.50;;;9.77;;
24008;SDS011;12217;50.792;4.372;2022-08-19T07:46:21;13.02;;;9.05;;
24008;SDS011;12217;50.792;4.372;2022-08-19T07:48:47;16.45;;;10.07;;
24008;SDS011;12217;50.792;4.372;2022-08-19T07:51:16;13.85;;;9.48;;
24008;SDS011;12217;50.792;4.372;2022-08-19T07:53:43;14.63;;;9.13;;
24008;SDS011;12217;50.792;4.372;2022-08-19T07:56:10;13.48;;;9.65;;
24008;SDS011;12217;50.792;4.372;2022-08-19T07:58:42;16.95;;;9.00;;
24008;SDS011;12217;50.792;4.372;2022-08-19T08:01:14;12.73;;;8.65;;
24008;SDS011;12217;50.792;4.372;2022-08-19T08:03:42;12.73;;;8.30;;
24008;SDS011;12217;50.792;4.372;2022-08-19T08:06:27;8.23;;;7.00;;
24008;SDS011;12217;50.792;4.372;2022-08-19T08:09:12;8.70;;;6.32;;
24008;SDS011;12217;50.792;4.372;2022-08-19T08:11:58;7.82;;;6.05;;
24008;SDS011;12217;50.792;4.372;2022-08-19T08:14:29;10.47;;;7.57;;
24008;SDS011;12217;50.792;4.372;2022-08-19T08:16:58;8.25;;;6.70;;
24008;SDS011;12217;50.792;4.372;2022-08-19T08:19:25;12.48;;;6.95;;
24008;SDS011;12217;50.792;4.372;2022-08-19T08:21:53;11.38;;;7.68;;
24008;SDS011;12217;50.792;4.372;2022-08-19T08:24:20;10.23;;;6.97;;
24008;SDS011;12217;50.792;4.372;2022-08-19T08:26:46;8.07;;;6.18;;
24008;SDS011;12217;50.792;4.372;2022-08-19T08:29:12;9.48;;;6.40;;
24008;SDS011;12217;50.792;4.372;2022-08-19T08:31:42;9.40;;;5.90;;
24008;SDS011;12217;50.792;4.372;2022-08-19T08:34:09;8.30;;;6.00;;
24008;SDS011;12217;50.792;4.372;2022-08-19T08:36:37;13.00;;;6.15;;
24008;SDS011;12217;50.792;4.372;2022-08-19T08:39:10;6.47;;;4.95;;
24008;SDS011;12217;50.792;4.372;2022-08-19T08:41:54;8.38;;;5.28;;
24008;SDS011;12217;50.792;4.372;2022-08-19T08:47:19;9.88;;;7.10;;
24008;SDS011;12217;50.792;4.372;2022-08-19T08:49:51;8.70;;;6.53;;
24008;SDS011;12217;50.792;4.372;2022-08-19T08:52:27;7.90;;;5.90;;
24008;SDS011;12217;50.792;4.372;2022-08-19T08:54:57;9.98;;;6.65;;
24008;SDS011;12217;50.792;4.372;2022-08-19T08:59:57;9.23;;;6.22;;
24008;SDS011;12217;50.792;4.372;2022-08-19T09:02:25;8.13;;;6.10;;
24008;SDS011;12217;50.792;4.372;2022-08-19T09:04:51;7.38;;;6.10;;
24008;SDS011;12217;50.792;4.372;2022-08-19T09:07:38;9.82;;;5.97;;
24008;SDS011;12217;50.792;4.372;2022-08-19T09:10:15;12.60;;;6.65;;
24008;SDS011;12217;50.792;4.372;2022-08-19T09:12:59;8.18;;;6.60;;
24008;SDS011;12217;50.792;4.372;2022-08-19T09:15:45;9.70;;;6.20;;
24008;SDS011;12217;50.792;4.372;2022-08-19T09:18:16;10.15;;;6.28;;
24008;SDS011;12217;50.792;4.372;2022-08-19T09:20:42;10.90;;;6.72;;
24008;SDS011;12217;50.792;4.372;2022-08-19T09:23:07;11.85;;;6.43;;
24008;SDS011;12217;50.792;4.372;2022-08-19T09:25:34;12.43;;;6.82;;
24008;SDS011;12217;50.792;4.372;2022-08-19T09:28:00;10.10;;;6.32;;
24008;SDS011;12217;50.792;4.372;2022-08-19T09:30:32;14.20;;;6.90;;
24008;SDS011;12217;50.792;4.372;2022-08-19T09:33:04;7.70;;;5.95;;
24008;SDS011;12217;50.792;4.372;2022-08-19T09:35:30;9.07;;;6.40;;
24008;SDS011;12217;50.792;4.372;2022-08-19T09:37:56;14.48;;;7.35;;
24008;SDS011;12217;50.792;4.372;2022-08-19T09:40:22;8.10;;;6.72;;
24008;SDS011;12217;50.792;4.372;2022-08-19T09:42:48;9.75;;;6.50;;
24008;SDS011;12217;50.792;4.372;2022-08-19T09:45:15;13.20;;;7.38;;
24008;SDS011;12217;50.792;4.372;2022-08-19T09:47:43;12.15;;;6.40;;
24008;SDS011;12217;50.792;4.372;2022-08-19T09:50:10;6.90;;;5.60;;
24008;SDS011;12217;50.792;4.372;2022-08-19T09:52:37;10.10;;;5.95;;
24008;SDS011;12217;50.792;4.372;2022-08-19T09:55:04;10.27;;;6.22;;
24008;SDS011;12217;50.792;4.372;2022-08-19T09:57:32;8.75;;;5.35;;
24008;SDS011;12217;50.792;4.372;2022-08-19T09:59:58;10.32;;;5.82;;
24008;SDS011;12217;50.792;4.372;2022-08-19T10:02:23;8.02;;;5.70;;
24008;SDS011;12217;50.792;4.372;2022-08-19T10:04:50;8.68;;;5.88;;
24008;SDS011;12217;50.792;4.372;2022-08-19T10:07:34;8.23;;;5.40;;
24008;SDS011;12217;50.792;4.372;2022-08-19T10:10:00;8.73;;;6.10;;
24008;SDS011;12217;50.792;4.372;2022-08-19T10:12:26;8.02;;;6.65;;
24008;SDS011;12217;50.792;4.372;2022-08-19T10:14:52;8.85;;;6.07;;
24008;SDS011;12217;50.792;4.372;2022-08-19T10:17:19;11.02;;;6.00;;
24008;SDS011;12217;50.792;4.372;2022-08-19T10:19:45;12.70;;;7.57;;
24008;SDS011;12217;50.792;4.372;2022-08-19T10:22:12;9.57;;;7.95;;
24008;SDS011;12217;50.792;4.372;2022-08-19T10:24:38;13.13;;;9.05;;
24008;SDS011;12217;50.792;4.372;2022-08-19T10:27:04;9.35;;;7.55;;
24008;SDS011;12217;50.792;4.372;2022-08-19T10:29:30;9.63;;;7.95;;
24008;SDS011;12217;50.792;4.372;2022-08-19T10:31:57;11.73;;;8.00;;
24008;SDS011;12217;50.792;4.372;2022-08-19T10:34:25;12.20;;;8.13;;
24008;SDS011;12217;50.792;4.372;2022-08-19T10:36:53;8.35;;;7.45;;
24008;SDS011;12217;50.792;4.372;2022-08-19T10:39:18;10.00;;;7.38;;
24008;SDS011;12217;50.792;4.372;2022-08-19T10:41:44;11.13;;;8.25;;
24008;SDS011;12217;50.792;4.372;2022-08-19T10:44:10;11.07;;;8.32;;
24008;SDS011;12217;50.792;4.372;2022-08-19T10:46:39;10.00;;;8.07;;
24008;SDS011;12217;50.792;4.372;2022-08-19T10:49:08;8.57;;;6.88;;
24008;SDS011;12217;50.792;4.372;2022-08-19T10:51:36;9.13;;;6.00;;
24008;SDS011;12217;50.792;4.372;2022-08-19T10:54:22;11.63;;;8.48;;
24008;SDS011;12217;50.792;4.372;2022-08-19T10:56:50;7.93;;;7.00;;
24008;SDS011;12217;50.792;4.372;2022-08-19T10:59:16;14.73;;;7.55;;
24008;SDS011;12217;50.792;4.372;2022-08-19T11:01:54;9.50;;;7.32;;
24008;SDS011;12217;50.792;4.372;2022-08-19T11:04:27;13.88;;;9.48;;
24008;SDS011;12217;50.792;4.372;2022-08-19T11:06:53;15.32;;;10.15;;
24008;SDS011;12217;50.792;4.372;2022-08-19T11:09:20;10.45;;;9.35;;
24008;SDS011;12217;50.792;4.372;2022-08-19T11:11:51;12.40;;;10.32;;
24008;SDS011;12217;50.792;4.372;2022-08-19T11:14:17;12.57;;;10.15;;
24008;SDS011;12217;50.792;4.372;2022-08-19T11:16:44;12.15;;;9.73;;
24008;SDS011;12217;50.792;4.372;2022-08-19T11:19:11;14.88;;;10.63;;
24008;SDS011;12217;50.792;4.372;2022-08-19T11:21:40;13.68;;;9.65;;
24008;SDS011;12217;50.792;4.372;2022-08-19T11:24:08;12.32;;;10.88;;
24008;SDS011;12217;50.792;4.372;2022-08-19T11:26:36;12.18;;;10.30;;
24008;SDS011;12217;50.792;4.372;2022-08-19T11:29:03;12.65;;;10.10;;
24008;SDS011;12217;50.792;4.372;2022-08-19T11:31:32;11.05;;;9.57;;
24008;SDS011;12217;50.792;4.372;2022-08-19T11:34:01;13.68;;;8.90;;
24008;SDS011;12217;50.792;4.372;2022-08-19T11:36:29;9.95;;;8.95;;
24008;SDS011;12217;50.792;4.372;2022-08-19T11:38:56;12.18;;;9.70;;
24008;SDS011;12217;50.792;4.372;2022-08-19T11:41:22;11.27;;;9.75;;
24008;SDS011;12217;50.792;4.372;2022-08-19T11:43:49;9.25;;;8.35;;
24008;SDS011;12217;50.792;4.372;2022-08-19T11:46:17;11.90;;;8.82;;
24008;SDS011;12217;50.792;4.372;2022-08-19T11:48:43;10.73;;;8.55;;
24008;SDS011;12217;50.792;4.372;2022-08-19T11:51:13;11.15;;;8.30;;
24008;SDS011;12217;50.792;4.372;2022-08-19T11:53:41;7.90;;;7.00;;
24008;SDS011;12217;50.792;4.372;2022-08-19T11:56:07;9.30;;;7.10;;
24008;SDS011;12217;50.792;4.372;2022-08-19T11:58:34;9.68;;;6.90;;
24008;SDS011;12217;50.792;4.372;2022-08-19T12:01:00;8.80;;;7.13;;
24008;SDS011;12217;50.792;4.372;2022-08-19T12:03:26;8.18;;;6.65;;
24008;SDS011;12217;50.792;4.372;2022-08-19T12:05:52;7.80;;;6.55;;
24008;SDS011;12217;50.792;4.372;2022-08-19T12:08:18;6.90;;;6.20;;
24008;SDS011;12217;50.792;4.372;2022-08-19T12:10:44;8.38;;;6.40;;
24008;SDS011;12217;50.792;4.372;2022-08-19T12:13:10;9.30;;;6.75;;
24008;SDS011;12217;50.792;4.372;2022-08-19T12:15:44;8.88;;;5.20;;
24008;SDS011;12217;50.792;4.372;2022-08-19T12:18:11;8.25;;;5.35;;
24008;SDS011;12217;50.792;4.372;2022-08-19T12:20:39;6.85;;;4.78;;
24008;SDS011;12217;50.792;4.372;2022-08-19T12:23:07;6.32;;;4.82;;
24008;SDS011;12217;50.792;4.372;2022-08-19T12:25:35;9.77;;;5.47;;
24008;SDS011;12217;50.792;4.372;2022-08-19T12:28:02;4.63;;;4.20;;
24008;SDS011;12217;50.792;4.372;2022-08-19T12:30:28;5.68;;;3.78;;
24008;SDS011;12217;50.792;4.372;2022-08-19T12:32:54;6.53;;;3.80;;
24008;SDS011;12217;50.792;4.372;2022-08-19T12:35:20;3.50;;;2.80;;
24008;SDS011;12217;50.792;4.372;2022-08-19T12:37:46;4.22;;;3.15;;
24008;SDS011;12217;50.792;4.372;2022-08-19T12:40:13;3.35;;;2.90;;
24008;SDS011;12217;50.792;4.372;2022-08-19T12:42:40;4.38;;;2.88;;
24008;SDS011;12217;50.792;4.372;2022-08-19T12:45:07;3.88;;;3.20;;
24008;SDS011;12217;50.792;4.372;2022-08-19T12:47:34;3.65;;;3.20;;
24008;SDS011;12217;50.792;4.372;2022-08-19T12:50:00;3.70;;;3.33;;
24008;SDS011;12217;50.792;4.372;2022-08-19T12:52:26;2.83;;;2.55;;
24008;SDS011;12217;50.792;4.372;2022-08-19T12:54:53;4.45;;;3.42;;
24008;SDS011;12217;50.792;4.372;2022-08-19T12:57:20;3.50;;;2.65;;
24008;SDS011;12217;50.792;4.372;2022-08-19T12:59:47;3.85;;;3.15;;
24008;SDS011;12217;50.792;4.372;2022-08-19T13:02:18;5.70;;;2.80;;
24008;SDS011;12217;50.792;4.372;2022-08-19T13:04:44;2.65;;;2.45;;
24008;SDS011;12217;50.792;4.372;2022-08-19T13:07:10;3.17;;;2.90;;
24008;SDS011;12217;50.792;4.372;2022-08-19T13:09:36;2.63;;;2.40;;
24008;SDS011;12217;50.792;4.372;2022-08-19T13:12:02;4.13;;;2.67;;
24008;SDS011;12217;50.792;4.372;2022-08-19T13:14:32;4.90;;;2.20;;
24008;SDS011;12217;50.792;4.372;2022-08-19T13:16:59;2.50;;;1.73;;
24008;SDS011;12217;50.792;4.372;2022-08-19T13:19:25;2.92;;;1.77;;
24008;SDS011;12217;50.792;4.372;2022-08-19T13:21:51;1.77;;;1.40;;
24008;SDS011;12217;50.792;4.372;2022-08-19T13:24:18;4.30;;;1.80;;
24008;SDS011;12217;50.792;4.372;2022-08-19T13:26:44;1.83;;;1.65;;
24008;SDS011;12217;50.792;4.372;2022-08-19T13:29:11;2.92;;;1.70;;
24008;SDS011;12217;50.792;4.372;2022-08-19T13:31:55;5.10;;;1.88;;
24008;SDS011;12217;50.792;4.372;2022-08-19T13:34:39;2.20;;;2.03;;
24008;SDS011;12217;50.792;4.372;2022-08-19T13:37:04;2.80;;;1.85;;
24008;SDS011;12217;50.792;4.372;2022-08-19T13:39:31;3.60;;;2.13;;
24008;SDS011;12217;50.792;4.372;2022-08-19T13:41:58;4.32;;;2.10;;
24008;SDS011;12217;50.792;4.372;2022-08-19T13:44:26;3.80;;;2.50;;
24008;SDS011;12217;50.792;4.372;2022-08-19T13:46:54;4.22;;;2.20;;
24008;SDS011;12217;50.792;4.372;2022-08-19T13:49:25;4.10;;;2.60;;
24008;SDS011;12217;50.792;4.372;2022-08-19T13:51:55;2.25;;;1.85;;
24008;SDS011;12217;50.792;4.372;2022-08-19T13:54:20;3.33;;;2.08;;
24008;SDS011;12217;50.792;4.372;2022-08-19T13:56:46;3.45;;;1.70;;
24008;SDS011;12217;50.792;4.372;2022-08-19T13:59:12;3.03;;;1.40;;
24008;SDS011;12217;50.792;4.372;2022-08-19T14:01:38;2.25;;;1.50;;
24008;SDS011;12217;50.792;4.372;2022-08-19T14:04:04;3.30;;;1.65;;
24008;SDS011;12217;50.792;4.372;2022-08-19T14:06:31;2.13;;;1.50;;
24008;SDS011;12217;50.792;4.372;2022-08-19T14:08:56;5.05;;;1.20;;
24008;SDS011;12217;50.792;4.372;2022-08-19T14:11:22;2.65;;;1.40;;
24008;SDS011;12217;50.792;4.372;2022-08-19T14:13:48;2.72;;;1.65;;
24008;SDS011;12217;50.792;4.372;2022-08-19T14:16:14;3.80;;;1.60;;
24008;SDS011;12217;50.792;4.372;2022-08-19T14:18:40;4.03;;;1.30;;
24008;SDS011;12217;50.792;4.372;2022-08-19T14:21:06;7.45;;;1.83;;
24008;SDS011;12217;50.792;4.372;2022-08-19T14:23:33;2.85;;;1.80;;
24008;SDS011;12217;50.792;4.372;2022-08-19T14:26:09;3.83;;;2.20;;
24008;SDS011;12217;50.792;4.372;2022-08-19T14:28:38;4.00;;;1.70;;
24008;SDS011;12217;50.792;4.372;2022-08-19T14:31:08;2.58;;;1.85;;
24008;SDS011;12217;50.792;4.372;2022-08-19T14:33:38;2.85;;;1.50;;
24008;SDS011;12217;50.792;4.372;2022-08-19T14:36:05;3.53;;;1.65;;
24008;SDS011;12217;50.792;4.372;2022-08-19T14:38:31;2.13;;;1.73;;
24008;SDS011;12217;50.792;4.372;2022-08-19T14:43:52;2.55;;;1.80;;